Time;durP1;ratioP1;P1;durP2;ratioP2;P2;SDS_P1;SDS_P2;PMS_P1;PMS_P2;Temp;Humidity;BMP_temperature;BMP_pressure;BME280_temperature;BME280_humidity;BME280_pressure;Samples;Min_cycle;Max_cycle;Signal;HPM_P1;HPM_P2
2022/04/13 00:01:41;;;;;;;;;;;11.90;99.90;;;;;;5117618;28;20004;-63
2022/04/13 00:04:06;;;;;;;;;;;11.80;99.90;;;;;;5103601;28;19997;-62
2022/04/13 00:06:38;;;;;;;;;;;11.60;99.90;;;;;;5096592;28;19931;-63
2022/04/13 00:09:05;;;;;;;;;;;11.50;99.90;;;;;;5077426;28;19928;-63
2022/04/13 00:11:31;;;;;;;;;;;11.40;99.90;;;;;;5078335;28;20081;-63
2022/04/13 00:13:57;;;;;;;;;;;11.40;99.90;;;;;;5096281;28;20008;-63
2022/04/13 00:16:22;;;;;;;;;;;11.40;99.90;;;;;;5093973;28;20022;-63
2022/04/13 00:18:48;;;;;;;;;;;11.40;99.90;;;;;;5116787;28;20373;-63
2022/04/13 00:21:13;;;;;;;;;;;11.30;99.90;;;;;;5102007;28;19928;-63
2022/04/13 00:23:39;;;;;;;;;;;11.40;99.90;;;;;;5103398;28;19928;-62
2022/04/13 00:26:05;;;;;;;;;;;11.40;99.90;;;;;;5115644;28;20278;-63
2022/04/13 00:28:30;;;;;;;;;;;11.40;99.90;;;;;;5099040;28;19931;-63
2022/04/13 00:30:56;;;;;;;;;;;11.40;99.90;;;;;;5116788;28;19924;-63
2022/04/13 00:33:21;;;;;;;;;;;11.30;99.90;;;;;;5115906;28;19989;-63
2022/04/13 00:35:47;;;;;;;;;;;11.30;99.90;;;;;;5096782;28;19924;-63
2022/04/13 00:38:13;;;;;;;;;;;11.20;99.90;;;;;;5098405;28;19974;-63
2022/04/13 00:40:40;;;;;;;;;;;11.10;99.90;;;;;;5115939;28;20295;-62
2022/04/13 00:43:06;;;;;;;;;;;11.00;99.90;;;;;;5096043;28;19931;-63
2022/04/13 00:45:31;;;;;;;;;;;10.90;99.90;;;;;;5078020;28;20393;-63
2022/04/13 00:47:58;;;;;;;;;;;10.90;99.90;;;;;;5077340;28;19924;-63
2022/04/13 00:50:24;;;;;;;;;;;10.80;99.90;;;;;;5077948;28;19928;-63
2022/04/13 00:52:50;;;;;;;;;;;10.80;99.90;;;;;;5105667;28;19924;-62
2022/04/13 00:55:16;;;;;;;;;;;10.80;99.90;;;;;;5115646;28;20010;-63
2022/04/13 00:57:42;;;;;;;;;;;10.80;99.90;;;;;;5116469;28;19970;-63
2022/04/13 01:00:10;;;;;;;;;;;10.70;99.90;;;;;;5116666;28;20293;-63
2022/04/13 01:02:36;;;;;;;;;;;10.70;99.90;;;;;;5113590;28;19970;-63
2022/04/13 01:05:03;;;;;;;;;;;10.60;99.90;;;;;;5095846;28;19920;-62
2022/04/13 01:07:29;;;;;;;;;;;10.60;99.90;;;;;;5095624;28;19943;-62
2022/04/13 01:09:55;;;;;;;;;;;10.60;99.90;;;;;;5075798;28;20049;-62
2022/04/13 01:12:21;;;;;;;;;;;10.50;99.90;;;;;;5094946;28;19930;-63
2022/04/13 01:14:47;;;;;;;;;;;10.40;99.90;;;;;;5095794;28;19924;-62
2022/04/13 01:17:12;;;;;;;;;;;10.40;99.90;;;;;;5061788;28;19968;-63
2022/04/13 01:19:39;;;;;;;;;;;10.30;99.90;;;;;;5077502;28;19970;-63
2022/04/13 01:22:14;;;;;;;;;;;10.50;99.90;;;;;;5057255;28;20406;-63
2022/04/13 01:24:40;;;;;;;;;;;10.40;99.90;;;;;;5071557;28;20007;-63
2022/04/13 01:27:05;;;;;;;;;;;10.20;99.90;;;;;;5094997;28;20402;-62
2022/04/13 01:29:31;;;;;;;;;;;10.30;99.90;;;;;;5094963;28;20022;-63
2022/04/13 01:31:58;;;;;;;;;;;10.20;99.90;;;;;;5094980;28;20358;-63
2022/04/13 01:34:23;;;;;;;;;;;10.30;99.90;;;;;;5090745;28;20585;-63
2022/04/13 01:36:49;;;;;;;;;;;10.40;99.90;;;;;;5074162;28;19931;-63
2022/04/13 01:39:14;;;;;;;;;;;10.40;99.90;;;;;;5074756;28;19935;-62
2022/04/13 01:41:40;;;;;;;;;;;10.50;99.90;;;;;;5075111;28;19925;-63
2022/04/13 01:44:06;;;;;;;;;;;10.60;99.90;;;;;;5074455;28;20379;-63
2022/04/13 01:46:31;;;;;;;;;;;10.60;99.90;;;;;;5088838;28;19924;-63
2022/04/13 01:48:57;;;;;;;;;;;10.60;99.90;;;;;;5094856;28;19923;-63
2022/04/13 01:51:23;;;;;;;;;;;10.60;99.90;;;;;;5094355;28;19924;-62
2022/04/13 01:53:48;;;;;;;;;;;10.70;99.90;;;;;;5075786;28;19930;-63
2022/04/13 01:56:14;;;;;;;;;;;10.60;99.90;;;;;;5095145;28;19950;-63
2022/04/13 01:58:40;;;;;;;;;;;10.70;99.90;;;;;;5094327;28;19924;-62
2022/04/13 02:01:06;;;;;;;;;;;10.70;99.90;;;;;;5076491;28;19924;-63
2022/04/13 02:03:32;;;;;;;;;;;10.60;99.90;;;;;;5075720;28;20417;-63
2022/04/13 02:05:58;;;;;;;;;;;10.70;99.90;;;;;;5075902;28;19924;-63
2022/04/13 02:08:23;;;;;;;;;;;10.70;99.90;;;;;;5094909;28;20038;-63
2022/04/13 02:10:49;;;;;;;;;;;10.60;99.90;;;;;;5113685;28;19931;-62
2022/04/13 02:13:15;;;;;;;;;;;10.60;99.90;;;;;;5113663;28;19924;-62
2022/04/13 02:15:41;;;;;;;;;;;10.60;99.90;;;;;;5115309;28;20005;-62
2022/04/13 02:18:07;;;;;;;;;;;10.70;99.90;;;;;;5095552;28;19932;-62
2022/04/13 02:20:33;;;;;;;;;;;10.60;99.90;;;;;;5077738;28;19924;-63
2022/04/13 02:23:01;;;;;;;;;;;10.60;99.90;;;;;;5112191;28;20020;-62
2022/04/13 02:25:27;;;;;;;;;;;10.60;99.90;;;;;;5114465;28;20393;-62
2022/04/13 02:27:53;;;;;;;;;;;10.60;99.90;;;;;;5114222;28;20116;-63
2022/04/13 02:30:18;;;;;;;;;;;10.60;99.90;;;;;;5113867;28;20361;-62
2022/04/13 02:32:44;;;;;;;;;;;10.60;99.90;;;;;;5113612;28;19931;-62
2022/04/13 02:35:10;;;;;;;;;;;10.60;99.90;;;;;;5085755;28;19928;-63
2022/04/13 02:37:35;;;;;;;;;;;10.60;99.90;;;;;;5094214;28;20290;-62
2022/04/13 02:40:01;;;;;;;;;;;10.60;99.90;;;;;;5092017;28;20428;-62
2022/04/13 02:42:33;;;;;;;;;;;10.60;99.90;;;;;;5114673;28;19930;-62
2022/04/13 02:44:59;;;;;;;;;;;10.60;99.90;;;;;;5114457;28;20279;-62
2022/04/13 02:47:25;;;;;;;;;;;10.60;99.90;;;;;;5112688;28;19924;-62
2022/04/13 02:49:51;;;;;;;;;;;10.60;99.90;;;;;;5096006;28;19931;-62
2022/04/13 02:52:16;;;;;;;;;;;10.50;99.90;;;;;;5114318;28;19924;-63
2022/04/13 02:54:42;;;;;;;;;;;10.50;99.90;;;;;;5113323;28;20385;-62
2022/04/13 02:57:07;;;;;;;;;;;10.40;99.90;;;;;;5095524;28;20002;-62
2022/04/13 02:59:33;;;;;;;;;;;10.30;99.90;;;;;;5114116;28;20026;-62
2022/04/13 03:01:59;;;;;;;;;;;10.30;99.90;;;;;;5113345;28;20362;-63
2022/04/13 03:04:24;;;;;;;;;;;10.20;99.90;;;;;;5097687;28;19927;-62
2022/04/13 03:06:50;;;;;;;;;;;10.40;99.90;;;;;;5113550;28;19930;-62
2022/04/13 03:09:15;;;;;;;;;;;10.40;99.90;;;;;;5112872;28;19924;-62
2022/04/13 03:11:41;;;;;;;;;;;10.50;99.90;;;;;;5114103;28;19931;-62
2022/04/13 03:14:07;;;;;;;;;;;10.70;99.90;;;;;;5094416;28;20292;-62
2022/04/13 03:16:32;;;;;;;;;;;10.70;99.90;;;;;;5107219;28;19920;-62
2022/04/13 03:18:58;;;;;;;;;;;10.70;99.90;;;;;;5075473;28;19932;-62
2022/04/13 03:21:24;;;;;;;;;;;10.70;99.90;;;;;;5093113;28;20522;-62
2022/04/13 03:23:50;;;;;;;;;;;10.70;99.90;;;;;;5103706;28;19920;-62
2022/04/13 03:26:16;;;;;;;;;;;10.60;99.90;;;;;;5113750;28;19931;-62
2022/04/13 03:28:41;;;;;;;;;;;10.40;99.90;;;;;;5113967;28;19923;-62
2022/04/13 03:31:07;;;;;;;;;;;10.30;99.90;;;;;;5093674;28;19924;-63
2022/04/13 03:33:33;;;;;;;;;;;10.30;99.90;;;;;;5113860;28;19924;-62
2022/04/13 03:35:58;;;;;;;;;;;10.30;99.90;;;;;;5076050;28;19924;-62
2022/04/13 03:38:24;;;;;;;;;;;10.40;99.90;;;;;;5074643;28;20361;-62
2022/04/13 03:40:49;;;;;;;;;;;10.30;99.90;;;;;;5101202;28;19940;-62
2022/04/13 03:43:15;;;;;;;;;;;10.30;99.90;;;;;;5113041;28;20026;-62
2022/04/13 03:45:41;;;;;;;;;;;10.30;99.90;;;;;;5113393;28;19924;-63
2022/04/13 03:48:06;;;;;;;;;;;10.20;99.90;;;;;;5113756;28;19959;-62
2022/04/13 03:50:32;;;;;;;;;;;10.20;99.90;;;;;;5096047;28;19924;-62
2022/04/13 03:52:58;;;;;;;;;;;10.20;99.90;;;;;;5093018;28;19924;-62
2022/04/13 03:55:23;;;;;;;;;;;10.10;99.90;;;;;;5074932;28;19927;-62
2022/04/13 03:57:50;;;;;;;;;;;10.10;99.90;;;;;;5076335;28;19936;-62
2022/04/13 04:00:16;;;;;;;;;;;10.30;99.90;;;;;;5112976;28;19923;-62
2022/04/13 04:02:43;;;;;;;;;;;10.10;99.90;;;;;;5111717;28;20015;-62
2022/04/13 04:05:09;;;;;;;;;;;10.10;99.90;;;;;;5092552;28;19967;-62
2022/04/13 04:07:34;;;;;;;;;;;10.10;99.90;;;;;;5092069;28;20628;-62
2022/04/13 04:10:01;;;;;;;;;;;10.20;99.90;;;;;;5092807;28;19971;-62
2022/04/13 04:12:27;;;;;;;;;;;10.20;99.90;;;;;;5092203;28;19924;-62
2022/04/13 04:14:53;;;;;;;;;;;10.20;99.90;;;;;;5093029;28;19971;-62
2022/04/13 04:17:18;;;;;;;;;;;10.20;99.90;;;;;;5098425;28;19924;-62
2022/04/13 04:19:44;;;;;;;;;;;10.20;99.90;;;;;;5092026;28;20377;-62
2022/04/13 04:22:09;;;;;;;;;;;10.20;99.90;;;;;;5092484;28;20301;-62
2022/04/13 04:24:35;;;;;;;;;;;10.20;99.90;;;;;;5109213;28;19923;-62
2022/04/13 04:27:01;;;;;;;;;;;10.20;99.90;;;;;;5112241;28;20072;-63
2022/04/13 04:29:26;;;;;;;;;;;10.30;99.90;;;;;;5094372;28;19928;-62
2022/04/13 04:31:54;;;;;;;;;;;10.30;99.90;;;;;;5113337;28;19924;-62
2022/04/13 04:34:21;;;;;;;;;;;10.30;99.90;;;;;;5107784;28;19931;-62
2022/04/13 04:36:46;;;;;;;;;;;10.40;99.90;;;;;;5092251;28;20551;-62
2022/04/13 04:39:12;;;;;;;;;;;10.40;99.90;;;;;;5092099;28;19924;-62
2022/04/13 04:41:40;;;;;;;;;;;10.40;99.90;;;;;;5092642;28;19931;-62
2022/04/13 04:44:06;;;;;;;;;;;10.40;99.90;;;;;;5093090;28;19975;-62
2022/04/13 04:46:31;;;;;;;;;;;10.40;99.90;;;;;;5094690;28;20032;-62
2022/04/13 04:48:57;;;;;;;;;;;10.50;99.90;;;;;;5116770;28;19923;-62
2022/04/13 04:51:22;;;;;;;;;;;10.50;99.90;;;;;;5115771;28;19938;-62
2022/04/13 04:53:48;;;;;;;;;;;10.50;99.90;;;;;;5097376;28;19931;-62
2022/04/13 04:56:14;;;;;;;;;;;10.70;99.90;;;;;;5098165;28;19928;-62
2022/04/13 04:58:40;;;;;;;;;;;10.80;99.90;;;;;;5097838;28;19945;-62
2022/04/13 05:01:06;;;;;;;;;;;10.90;99.90;;;;;;5100757;28;19924;-62
2022/04/13 05:03:32;;;;;;;;;;;10.90;99.90;;;;;;5104533;28;19977;-62
2022/04/13 05:05:57;;;;;;;;;;;10.90;99.90;;;;;;5116438;28;19959;-62
2022/04/13 05:08:23;;;;;;;;;;;11.00;99.90;;;;;;5114744;28;19924;-62
2022/04/13 05:10:51;;;;;;;;;;;11.00;99.90;;;;;;5097595;28;20366;-63
2022/04/13 05:13:18;;;;;;;;;;;11.10;99.90;;;;;;5116330;28;19930;-62
2022/04/13 05:15:44;;;;;;;;;;;11.10;99.90;;;;;;5096745;28;19930;-62
2022/04/13 05:18:10;;;;;;;;;;;11.10;99.90;;;;;;5104770;28;19928;-62
2022/04/13 05:20:36;;;;;;;;;;;11.10;99.90;;;;;;5106659;28;19930;-62
2022/04/13 05:23:01;;;;;;;;;;;11.10;99.90;;;;;;5095947;28;19924;-62
2022/04/13 05:25:27;;;;;;;;;;;11.00;99.90;;;;;;5097488;28;19928;-63
2022/04/13 05:27:52;;;;;;;;;;;11.00;99.90;;;;;;5115427;28;20266;-62
2022/04/13 05:30:18;;;;;;;;;;;10.90;99.90;;;;;;5114861;28;20400;-62
2022/04/13 05:32:45;;;;;;;;;;;10.90;99.90;;;;;;5115820;28;19934;-62
2022/04/13 05:35:10;;;;;;;;;;;10.90;99.90;;;;;;5088309;28;21155;-62
2022/04/13 05:37:36;;;;;;;;;;;11.00;99.90;;;;;;5114324;28;20019;-62
2022/04/13 05:40:01;;;;;;;;;;;11.00;99.90;;;;;;5097503;28;19990;-62
2022/04/13 05:42:27;;;;;;;;;;;11.00;99.90;;;;;;5097243;28;19924;-63
2022/04/13 05:44:53;;;;;;;;;;;11.10;99.90;;;;;;5103751;28;19969;-62
2022/04/13 05:47:18;;;;;;;;;;;11.20;99.90;;;;;;5076873;28;19924;-62
2022/04/13 05:49:44;;;;;;;;;;;11.20;99.90;;;;;;5094115;28;19969;-63
2022/04/13 05:52:10;;;;;;;;;;;11.30;99.90;;;;;;5094597;28;19931;-62
2022/04/13 05:54:36;;;;;;;;;;;11.30;99.90;;;;;;5111930;28;20005;-63
2022/04/13 05:57:02;;;;;;;;;;;11.40;99.90;;;;;;5114189;28;19966;-62
2022/04/13 05:59:28;;;;;;;;;;;11.50;99.90;;;;;;5096572;28;20025;-63
2022/04/13 06:01:54;;;;;;;;;;;11.50;99.90;;;;;;5114847;28;19928;-63
2022/04/13 06:04:20;;;;;;;;;;;11.60;99.90;;;;;;5099032;28;20310;-62
2022/04/13 06:06:45;;;;;;;;;;;11.60;99.90;;;;;;5094450;28;19924;-62
2022/04/13 06:09:11;;;;;;;;;;;11.70;99.90;;;;;;5058984;28;19924;-62
2022/04/13 06:11:36;;;;;;;;;;;11.70;99.90;;;;;;5094084;28;19931;-63
2022/04/13 06:14:02;;;;;;;;;;;11.70;99.90;;;;;;5093649;28;19924;-62
2022/04/13 06:16:28;;;;;;;;;;;11.70;99.90;;;;;;5094679;28;19928;-63
2022/04/13 06:18:54;;;;;;;;;;;11.60;99.90;;;;;;5093685;28;20663;-63
2022/04/13 06:21:19;;;;;;;;;;;11.60;99.90;;;;;;5097323;28;19924;-63
2022/04/13 06:23:45;;;;;;;;;;;11.60;99.90;;;;;;5101914;28;19924;-63
2022/04/13 06:26:11;;;;;;;;;;;11.60;99.90;;;;;;5114143;28;19924;-62
2022/04/13 06:28:36;;;;;;;;;;;11.60;99.90;;;;;;5113761;28;19945;-63
2022/04/13 06:31:02;;;;;;;;;;;11.60;99.90;;;;;;5114865;28;19969;-63
2022/04/13 06:33:28;;;;;;;;;;;11.70;99.90;;;;;;5113942;28;19924;-63
2022/04/13 06:35:53;;;;;;;;;;;11.70;99.90;;;;;;5097470;28;19928;-63
2022/04/13 06:38:19;;;;;;;;;;;11.80;99.90;;;;;;5106832;28;19928;-63
2022/04/13 06:40:44;;;;;;;;;;;11.80;99.90;;;;;;5113676;28;20017;-63
2022/04/13 06:43:10;;;;;;;;;;;11.90;99.90;;;;;;5114240;28;19924;-63
2022/04/13 06:45:36;;;;;;;;;;;12.00;99.90;;;;;;5114521;28;19924;-63
2022/04/13 06:48:02;;;;;;;;;;;12.10;99.90;;;;;;5074991;28;19924;-63
2022/04/13 06:50:29;;;;;;;;;;;12.20;99.90;;;;;;5075673;28;19931;-63
2022/04/13 06:52:54;;;;;;;;;;;12.40;99.90;;;;;;5093128;28;20497;-63
2022/04/13 06:55:20;;;;;;;;;;;12.50;99.90;;;;;;5082468;28;20026;-63
2022/04/13 06:57:46;;;;;;;;;;;12.90;99.90;;;;;;5113911;28;20020;-63
2022/04/13 07:00:12;;;;;;;;;;;12.90;99.90;;;;;;5113425;28;20030;-63
2022/04/13 07:02:39;;;;;;;;;;;12.90;99.90;;;;;;5091316;28;19932;-65
2022/04/13 07:05:04;;;;;;;;;;;13.00;99.90;;;;;;5093586;28;19935;-65
2022/04/13 07:07:31;;;;;;;;;;;13.00;99.90;;;;;;5091864;28;19924;-65
2022/04/13 07:09:56;;;;;;;;;;;13.10;99.90;;;;;;5097709;28;19927;-65
2022/04/13 07:12:22;;;;;;;;;;;13.30;99.90;;;;;;5101336;28;19924;-65
2022/04/13 07:14:47;;;;;;;;;;;13.30;99.90;;;;;;5102985;28;19932;-65
2022/04/13 07:17:13;;;;;;;;;;;13.50;99.90;;;;;;5101533;28;19951;-65
2022/04/13 07:19:39;;;;;;;;;;;13.70;99.90;;;;;;5098737;28;19927;-65
2022/04/13 07:22:05;;;;;;;;;;;13.70;99.90;;;;;;5100794;28;19924;-65
2022/04/13 07:24:30;;;;;;;;;;;13.80;99.90;;;;;;5097180;28;19946;-65
2022/04/13 07:26:56;;;;;;;;;;;13.70;99.90;;;;;;5103741;28;19971;-65
2022/04/13 07:29:22;;;;;;;;;;;13.80;99.90;;;;;;5102216;28;20331;-65
2022/04/13 07:31:47;;;;;;;;;;;13.90;99.90;;;;;;5062128;28;20029;-65
2022/04/13 07:34:13;;;;;;;;;;;13.90;99.90;;;;;;5099840;28;20371;-65
2022/04/13 07:36:39;;;;;;;;;;;14.10;99.90;;;;;;5092420;28;20294;-64
2022/04/13 07:39:04;;;;;;;;;;;14.20;99.90;;;;;;5092310;28;20409;-65
2022/04/13 07:41:30;;;;;;;;;;;14.40;99.90;;;;;;5075364;28;20298;-65
2022/04/13 07:43:57;;;;;;;;;;;14.60;99.90;;;;;;5099787;28;20393;-65
2022/04/13 07:46:25;;;;;;;;;;;14.70;99.90;;;;;;5101167;28;19924;-65
2022/04/13 07:48:51;;;;;;;;;;;14.70;99.90;;;;;;5101335;28;19924;-65
2022/04/13 07:51:17;;;;;;;;;;;14.80;99.90;;;;;;5102895;28;20010;-65
2022/04/13 07:53:42;;;;;;;;;;;14.90;99.90;;;;;;5065564;28;19924;-66
2022/04/13 07:56:08;;;;;;;;;;;15.00;99.90;;;;;;5079315;28;19920;-65
2022/04/13 07:58:34;;;;;;;;;;;15.10;99.90;;;;;;5080719;28;19944;-65
2022/04/13 08:01:00;;;;;;;;;;;15.30;99.90;;;;;;5072626;28;19978;-65
2022/04/13 08:03:25;;;;;;;;;;;15.40;99.90;;;;;;5061470;28;19920;-65
2022/04/13 08:05:51;;;;;;;;;;;15.60;99.90;;;;;;5088273;28;19959;-65
2022/04/13 08:08:17;;;;;;;;;;;15.80;99.90;;;;;;5092903;28;19928;-65
2022/04/13 08:10:43;;;;;;;;;;;16.00;99.90;;;;;;5077709;28;19924;-65
2022/04/13 08:13:08;;;;;;;;;;;16.20;99.90;;;;;;5073764;28;19924;-65
2022/04/13 08:15:34;;;;;;;;;;;16.10;99.90;;;;;;5089086;28;19930;-65
2022/04/13 08:18:00;;;;;;;;;;;15.90;99.90;;;;;;5073800;28;20010;-65
2022/04/13 08:20:25;;;;;;;;;;;15.70;99.90;;;;;;5092603;28;19931;-65
2022/04/13 08:22:51;;;;;;;;;;;15.70;99.90;;;;;;5098365;28;19928;-65
2022/04/13 08:25:17;;;;;;;;;;;15.60;99.90;;;;;;5095912;28;20005;-65
2022/04/13 08:27:43;;;;;;;;;;;15.60;99.90;;;;;;5096331;28;19948;-65
2022/04/13 08:30:08;;;;;;;;;;;15.50;99.90;;;;;;5096540;28;19968;-65
2022/04/13 08:32:36;;;;;;;;;;;15.50;99.90;;;;;;5091617;28;19974;-65
2022/04/13 08:35:05;;;;;;;;;;;15.50;99.90;;;;;;5077421;28;20065;-65
2022/04/13 08:37:31;;;;;;;;;;;15.40;99.90;;;;;;5095906;28;20298;-65
2022/04/13 08:39:57;;;;;;;;;;;15.40;99.90;;;;;;5094767;28;19958;-65
2022/04/13 08:42:54;;;;;;;;;;;15.50;99.90;;;;;;5095128;28;19960;-65
2022/04/13 08:45:22;;;;;;;;;;;15.60;99.90;;;;;;5095700;28;19924;-65
2022/04/13 08:47:50;;;;;;;;;;;15.60;99.90;;;;;;5095654;28;20450;-65
2022/04/13 08:50:17;;;;;;;;;;;15.60;99.90;;;;;;5085144;28;19932;-65
2022/04/13 08:52:47;;;;;;;;;;;15.70;99.90;;;;;;5056969;28;19971;-65
2022/04/13 08:55:16;;;;;;;;;;;15.50;99.90;;;;;;5075577;28;19931;-65
2022/04/13 08:57:50;;;;;;;;;;;15.60;99.90;;;;;;5078847;28;19973;-65
2022/04/13 09:00:16;;;;;;;;;;;15.60;99.90;;;;;;5094338;28;19981;-65
2022/04/13 09:02:48;;;;;;;;;;;15.60;99.90;;;;;;5094895;28;20246;-65
2022/04/13 09:05:16;;;;;;;;;;;15.60;99.90;;;;;;5092785;28;20410;-68
2022/04/13 09:07:42;;;;;;;;;;;15.50;99.90;;;;;;5094936;28;19924;-65
2022/04/13 09:10:11;;;;;;;;;;;15.50;99.90;;;;;;5086913;28;19982;-65
2022/04/13 09:12:38;;;;;;;;;;;15.60;99.90;;;;;;5058007;28;19974;-65
2022/04/13 09:15:04;;;;;;;;;;;15.70;99.90;;;;;;5071569;28;19928;-65
2022/04/13 09:17:30;;;;;;;;;;;16.10;99.90;;;;;;5064540;28;20016;-65
2022/04/13 09:19:56;;;;;;;;;;;16.20;99.90;;;;;;5075163;28;19968;-65
2022/04/13 09:22:22;;;;;;;;;;;16.50;99.90;;;;;;5064537;28;19970;-65
2022/04/13 09:24:49;;;;;;;;;;;16.60;99.90;;;;;;5092376;28;19924;-65
2022/04/13 09:27:15;;;;;;;;;;;16.40;99.90;;;;;;5073331;28;20376;-63
2022/04/13 09:29:41;;;;;;;;;;;16.50;99.90;;;;;;5051566;28;19924;-63
2022/04/13 09:32:07;;;;;;;;;;;16.60;99.90;;;;;;5056521;28;19924;-64
2022/04/13 09:34:33;;;;;;;;;;;16.60;99.90;;;;;;5075308;28;20317;-63
2022/04/13 09:37:00;;;;;;;;;;;16.70;99.90;;;;;;5073367;28;19931;-63
2022/04/13 09:39:26;;;;;;;;;;;16.80;99.90;;;;;;5058831;28;19969;-63
2022/04/13 09:41:51;;;;;;;;;;;17.10;99.90;;;;;;5073218;28;19926;-63
2022/04/13 09:44:19;;;;;;;;;;;17.00;99.90;;;;;;5061855;28;20405;-64
2022/04/13 09:46:45;;;;;;;;;;;17.30;99.90;;;;;;5075086;28;19929;-63
2022/04/13 09:49:11;;;;;;;;;;;17.40;99.90;;;;;;5073811;28;19969;-63
2022/04/13 09:51:38;;;;;;;;;;;17.20;99.90;;;;;;5072445;28;19931;-63
2022/04/13 09:54:06;;;;;;;;;;;17.20;99.90;;;;;;5073852;28;19928;-63
2022/04/13 09:56:31;;;;;;;;;;;17.30;99.90;;;;;;5072117;28;19925;-63
2022/04/13 09:58:57;;;;;;;;;;;17.40;99.90;;;;;;5073713;28;19927;-65
2022/04/13 10:01:23;;;;;;;;;;;17.50;99.90;;;;;;5083589;28;20023;-64
2022/04/13 10:03:54;;;;;;;;;;;17.60;99.90;;;;;;5082630;28;20275;-64
2022/04/13 10:06:26;;;;;;;;;;;17.70;99.90;;;;;;5074810;28;19970;-64
2022/04/13 10:09:05;;;;;;;;;;;17.80;99.90;;;;;;5077387;28;19924;-64
2022/04/13 10:11:30;;;;;;;;;;;17.70;99.90;;;;;;5073269;28;19924;-64
2022/04/13 10:13:56;;;;;;;;;;;17.80;99.90;;;;;;5074605;28;19924;-65
2022/04/13 10:16:22;;;;;;;;;;;17.60;99.90;;;;;;5052918;28;19932;-64
2022/04/13 10:18:53;;;;;;;;;;;17.70;99.90;;;;;;5067290;28;20370;-64
2022/04/13 10:21:34;;;;;;;;;;;17.90;99.90;;;;;;5061273;28;19932;-65
2022/04/13 10:24:01;;;;;;;;;;;18.30;99.90;;;;;;5082841;28;20374;-65
2022/04/13 10:26:27;;;;;;;;;;;18.40;99.90;;;;;;5094287;28;20058;-65
2022/04/13 10:28:52;;;;;;;;;;;18.40;99.90;;;;;;5075563;28;20394;-65
2022/04/13 10:31:18;;;;;;;;;;;19.10;99.90;;;;;;5093414;28;19971;-64
2022/04/13 10:33:45;;;;;;;;;;;18.90;99.90;;;;;;5093821;28;19928;-65
2022/04/13 10:36:11;;;;;;;;;;;19.60;99.90;;;;;;5078884;28;20285;-65
2022/04/13 10:38:36;;;;;;;;;;;20.40;99.90;;;;;;5093315;28;19920;-65
2022/04/13 10:41:02;;;;;;;;;;;20.10;99.70;;;;;;5093970;28;19924;-65
2022/04/13 10:43:28;;;;;;;;;;;20.90;99.90;;;;;;5094266;28;20431;-65
2022/04/13 10:45:54;;;;;;;;;;;20.80;97.50;;;;;;5074506;28;20014;-65
2022/04/13 10:48:22;;;;;;;;;;;20.70;99.60;;;;;;5075730;28;19924;-65
2022/04/13 10:50:57;;;;;;;;;;;21.00;99.90;;;;;;5070869;28;19920;-65
2022/04/13 10:53:25;;;;;;;;;;;21.40;99.40;;;;;;5069504;28;19924;-65
2022/04/13 10:55:58;;;;;;;;;;;21.20;99.90;;;;;;5064322;28;19924;-65
2022/04/13 10:58:35;;;;;;;;;;;21.70;99.00;;;;;;5070505;28;20504;-64
2022/04/13 11:01:03;;;;;;;;;;;21.40;96.10;;;;;;5051605;28;19924;-65
2022/04/13 11:03:32;;;;;;;;;;;21.40;96.90;;;;;;5055593;28;20280;-65
2022/04/13 11:05:58;;;;;;;;;;;21.90;97.50;;;;;;5073557;28;19924;-65
2022/04/13 11:08:29;;;;;;;;;;;22.30;97.70;;;;;;5072895;28;19925;-65
2022/04/13 11:10:56;;;;;;;;;;;22.50;94.70;;;;;;5072996;28;19924;-65
2022/04/13 11:13:22;;;;;;;;;;;21.70;94.40;;;;;;5091443;28;19924;-65
2022/04/13 11:15:50;;;;;;;;;;;20.90;98.00;;;;;;5058570;28;21194;-65
2022/04/13 11:18:17;;;;;;;;;;;20.20;99.30;;;;;;5073356;28;19924;-65
2022/04/13 11:21:01;;;;;;;;;;;20.00;99.90;;;;;;5054745;28;20520;-65
2022/04/13 11:23:49;;;;;;;;;;;20.10;99.90;;;;;;5078158;28;20281;-65
2022/04/13 11:26:16;;;;;;;;;;;20.40;99.90;;;;;;5093579;28;20103;-65
2022/04/13 11:28:41;;;;;;;;;;;20.50;99.90;;;;;;5074487;28;19928;-65
2022/04/13 11:31:08;;;;;;;;;;;20.70;99.90;;;;;;5092510;28;19931;-65
2022/04/13 11:33:39;;;;;;;;;;;20.70;99.90;;;;;;5075126;28;20011;-65
2022/04/13 11:36:05;;;;;;;;;;;20.40;99.90;;;;;;5074313;28;19952;-65
2022/04/13 11:38:36;;;;;;;;;;;20.60;99.90;;;;;;5079939;28;19924;-65
2022/04/13 11:41:03;;;;;;;;;;;20.60;99.90;;;;;;5093415;28;19931;-65
2022/04/13 11:43:29;;;;;;;;;;;20.40;99.90;;;;;;5076993;28;19925;-65
2022/04/13 11:45:54;;;;;;;;;;;20.40;99.90;;;;;;5046194;28;19928;-65
2022/04/13 11:48:33;;;;;;;;;;;20.30;99.90;;;;;;5091301;28;19938;-65
2022/04/13 11:51:19;;;;;;;;;;;20.00;99.90;;;;;;5034961;28;20349;-65
2022/04/13 11:53:54;;;;;;;;;;;19.60;99.90;;;;;;5052054;28;19943;-65
2022/04/13 11:56:34;;;;;;;;;;;19.30;99.90;;;;;;5071877;28;19921;-65
2022/04/13 11:59:00;;;;;;;;;;;19.20;99.90;;;;;;5073842;28;19979;-65
2022/04/13 12:01:26;;;;;;;;;;;19.20;99.90;;;;;;5057913;28;20425;-65
2022/04/13 12:03:54;;;;;;;;;;;19.00;99.90;;;;;;5069652;28;20319;-65
2022/04/13 12:06:22;;;;;;;;;;;19.60;99.90;;;;;;5037111;28;20414;-65
2022/04/13 12:08:50;;;;;;;;;;;20.30;99.90;;;;;;5074694;28;20001;-65
2022/04/13 12:11:17;;;;;;;;;;;20.60;99.50;;;;;;5057531;28;19925;-65
2022/04/13 12:13:44;;;;;;;;;;;20.20;98.60;;;;;;5081049;28;19924;-65
2022/04/13 12:16:15;;;;;;;;;;;19.50;96.90;;;;;;5064209;28;19967;-65
2022/04/13 12:18:41;;;;;;;;;;;19.10;97.70;;;;;;5074537;28;19920;-65
2022/04/13 12:21:08;;;;;;;;;;;18.60;97.00;;;;;;5075660;28;19924;-65
2022/04/13 12:23:35;;;;;;;;;;;18.20;99.00;;;;;;5059048;28;20382;-65
2022/04/13 12:26:01;;;;;;;;;;;18.00;99.90;;;;;;5076310;28;19924;-65
2022/04/13 12:28:27;;;;;;;;;;;17.90;99.90;;;;;;5076353;28;19932;-65
2022/04/13 12:31:06;;;;;;;;;;;17.90;99.90;;;;;;5074959;28;20289;-65
2022/04/13 12:33:32;;;;;;;;;;;17.80;99.90;;;;;;5076456;28;19932;-65
2022/04/13 12:35:59;;;;;;;;;;;17.90;99.90;;;;;;5076325;28;19925;-65
2022/04/13 12:38:26;;;;;;;;;;;18.00;99.90;;;;;;5074985;28;19928;-65
2022/04/13 12:41:01;;;;;;;;;;;18.10;99.90;;;;;;5086697;28;19973;-65
2022/04/13 12:43:27;;;;;;;;;;;18.30;99.90;;;;;;5078433;28;20388;-65
2022/04/13 12:45:53;;;;;;;;;;;18.30;99.90;;;;;;5095273;28;19931;-65
2022/04/13 12:48:25;;;;;;;;;;;18.30;99.90;;;;;;5096242;28;20309;-65
2022/04/13 12:50:58;;;;;;;;;;;18.10;99.90;;;;;;5055951;28;19925;-65
2022/04/13 12:53:24;;;;;;;;;;;18.00;99.90;;;;;;5036693;28;19946;-65
2022/04/13 12:55:51;;;;;;;;;;;17.90;99.90;;;;;;5038083;28;19928;-65
2022/04/13 12:58:17;;;;;;;;;;;17.80;99.90;;;;;;5064325;28;20007;-65
2022/04/13 13:00:49;;;;;;;;;;;17.70;99.90;;;;;;5074859;28;20341;-65
2022/04/13 13:03:16;;;;;;;;;;;17.60;99.90;;;;;;5081800;28;19928;-65
2022/04/13 13:05:41;;;;;;;;;;;17.60;99.90;;;;;;5077069;28;19939;-65
2022/04/13 13:08:07;;;;;;;;;;;17.40;99.90;;;;;;5093616;28;19924;-65
2022/04/13 13:10:33;;;;;;;;;;;17.40;99.90;;;;;;5112988;28;20014;-65
2022/04/13 13:13:18;;;;;;;;;;;17.20;99.90;;;;;;5096983;28;19924;-65
2022/04/13 13:15:45;;;;;;;;;;;17.20;99.90;;;;;;5108310;28;19975;-65
2022/04/13 13:18:10;;;;;;;;;;;17.10;99.90;;;;;;5070893;28;19931;-65
2022/04/13 13:20:52;;;;;;;;;;;17.10;99.90;;;;;;5082783;28;19924;-65
2022/04/13 13:23:24;;;;;;;;;;;17.10;99.90;;;;;;5082946;28;19934;-65
2022/04/13 13:25:49;;;;;;;;;;;17.10;99.90;;;;;;5112946;28;19984;-65
2022/04/13 13:28:15;;;;;;;;;;;17.10;99.90;;;;;;5114914;28;20369;-65
2022/04/13 13:30:41;;;;;;;;;;;17.20;99.90;;;;;;5115436;28;20239;-65
2022/04/13 13:33:10;;;;;;;;;;;17.20;99.90;;;;;;5107621;28;19924;-65
2022/04/13 13:35:36;;;;;;;;;;;17.30;99.90;;;;;;5094457;28;19924;-65
2022/04/13 13:38:06;;;;;;;;;;;17.30;99.90;;;;;;5075732;28;19978;-65
2022/04/13 13:40:41;;;;;;;;;;;17.30;99.90;;;;;;5056689;28;19932;-65
2022/04/13 13:43:07;;;;;;;;;;;17.30;99.90;;;;;;5102245;28;19924;-65
2022/04/13 13:45:34;;;;;;;;;;;17.30;99.90;;;;;;5115086;28;19973;-65
2022/04/13 13:48:00;;;;;;;;;;;17.20;99.90;;;;;;5114959;28;20361;-64
2022/04/13 13:50:28;;;;;;;;;;;17.20;99.90;;;;;;5114868;28;19955;-65
2022/04/13 13:52:53;;;;;;;;;;;17.20;99.90;;;;;;5115114;28;20010;-65
2022/04/13 13:55:24;;;;;;;;;;;17.20;99.90;;;;;;5114883;28;20026;-65
2022/04/13 13:57:49;;;;;;;;;;;17.10;99.90;;;;;;5115399;28;19924;-64
2022/04/13 14:00:15;;;;;;;;;;;17.00;99.90;;;;;;5114254;28;19924;-65
2022/04/13 14:02:41;;;;;;;;;;;16.80;99.90;;;;;;5112869;28;19977;-65
2022/04/13 14:05:07;;;;;;;;;;;16.60;99.90;;;;;;5076607;28;19924;-65
2022/04/13 14:07:33;;;;;;;;;;;16.50;99.90;;;;;;5094712;28;20064;-64
2022/04/13 14:09:58;;;;;;;;;;;16.40;99.90;;;;;;5091259;28;20351;-65
2022/04/13 14:12:24;;;;;;;;;;;16.30;99.90;;;;;;5096615;28;20057;-65
2022/04/13 14:14:54;;;;;;;;;;;16.30;99.90;;;;;;5114682;28;19968;-64